Terminal Aerodrome Forecast
Issued by NWS Wilmington, OH

Current Version | Previous Version | Graphics & Text | Print | Product List | Glossary On
Versions: 1 2 3 4 5 6 7 8 9 10 11 12 13 14 15 16 17 18 19 20
000
FTUS41 KILN 171446 AAA
TAFCMH
TAF AMD
KCMH 171446Z 1715/1812 19005KT P6SM OVC150
     FM172000 19006KT P6SM -RA OVC050
     FM172300 19005KT P6SM VCSH OVC040
     FM180800 20004KT P6SM -DZ OVC022
     FM181000 20005KT 5SM -DZ BR OVC012=

USA.gov is the U.S. government's official web portal to all federal, state and local government web resources and services.